KMOX/MOX METAR and TAF weather

Enter ICAO airport designator
Station Type Date Time Source
KMOX METAR 2021/01/16 03:15 UTC NOAA

KMOX 160315Z AUTO 34021KT 10SM CLR M07/M09 A2989 RMK AO2


Station Type Date Time Source
KMOX Decoded METAR 2021/01/16 03:15 UTC NOAA

Morris, Morris Municipal Airport, MN, United States (KMOX) 45-34N 095-58W
Jan 15, 2021 - 10:15 PM EST / 2021.01.16 0315 UTC
Wind: from the NNW (340 degrees) at 24 MPH (21 KT):0
Visibility: 10 mile(s):0
Sky conditions: clear
Temperature: 19 F (-7 C)
Windchill: 1 F (-17 C):1
Dew Point: 15 F (-9 C)
Relative Humidity: 85%
Pressure (altimeter): 29.89 in. Hg (1012 hPa)
ob: KMOX 160315Z AUTO 34021KT 10SM CLR M07/M09 A2989 RMK AO2
cycle: 3

Station Type Date Time Source
KMOX TAF UTC NOAA

Error!

Example: see airport list